Saint John, Washington
Current Conditions -  °F | °C
As of 1:53 PM on Friday 31 Oct 2014 (Local Time) from KPUW Reporting Station
Broken Clouds Broken Clouds  
Wind Chill: 61°   Ceiling: 9500
Heat Index: 61°   Visibility: 10mi
Dew Point: 46°   Wind: 5mph
Humidity: 58%   Direction: 190°S
Pressure: 29.76"   Gusts: NA
Location:  47.09°N, 117.58°W
Report Text: KPUW 312053Z AUTO 19004KT 10SM BKN095 16/08 A2976 RMK AO2 SLP071 T01610078 55004
Loading
Personal Weather Stations






























Interactive Weather Map New forecast layout! Learn more

10-Day Weather Forecast

Advertisements
Track Severe Weather on mobile